St. LLORENÇ del MUNT i l'OBAC -La Mata (Bages)





Hora UTC 03:45
Temperatura 3.4 ºC
Humedad 91.0 %
Presión 1023.8 hPa
Pluja 0.0 mm
Velocidad viento 6.9 km/h
Dirección viento SW
Radiación solar 0.1 W/m²
Fuel 41.9 %

Datos diarios 2023-02-06



Hora UTC (invierno +1h; verano +2h)
Temperatura (ºC) Humedad (%) Presión (hPa) Velocidad viento (km/h) Precipitación (mm) Fuel (%) Radiación solar (W/m²)
Hora UTC Aire Humedad Presión Vel. Dir. Vel. Max Dir. Intent. máx 5 min. Fuel Rad. Sol.
00:05 3.9 90.5 1025.2 15.1 SSE 15.1 SSE 0.0 31.8 0.1
00:10 3.9 90.4 1025.1 18.9 SE 30.7 SE 0.0 32.2 0.1
00:15 4.0 90.3 1025.2 20.8 SE 30.3 ESE 0.0 32.6 0.1
00:20 4.1 90.2 1025.1 14.9 SE 23.3 SE 0.0 33.0 0.1
00:25 4.1 90.0 1025.0 18.5 SE 33.5 SSE 0.0 33.3 0.1
00:30 4.2 89.9 1024.9 16.8 SE 24.3 SSE 0.0 33.6 0.1
00:35 4.2 89.8 1024.8 12.6 SSE 20.5 S 0.0 33.8 0.1
00:40 4.2 89.6 1024.7 15.6 SE 24.3 SE 0.0 33.9 0.1
00:45 4.2 89.5 1024.6 16.4 SSE 25.4 SE 0.0 34.1 0.1
00:50 4.2 89.4 1024.6 16.6 SSE 27.9 SE 0.0 34.5 0.1
00:55 4.2 89.2 1024.6 15.7 SSE 26.8 SSE 0.0 34.7 0.1
01:00 4.2 89.2 1024.4 15.8 SSE 23.3 SE 0.0 34.9 0.1
01:05 4.2 89.2 1024.5 13.2 SSE 21.9 SSE 0.0 35.0 0.1
01:10 4.1 89.3 1024.5 16.2 SSE 26.1 SSE 0.0 35.3 0.1
01:15 4.1 89.3 1024.6 13.2 SSE 21.9 SSE 0.0 35.6 0.1
01:20 4.2 89.3 1024.5 13.4 SSE 23.6 SSE 0.0 35.9 0.1
01:25 4.2 89.4 1024.5 14.0 S 22.9 S 0.0 36.2 0.1
01:30 4.2 89.8 1024.5 11.5 S 20.1 SSE 0.0 36.6 0.1
01:35 4.2 90.3 1024.5 14.6 S 25.4 SSW 0.0 36.9 0.1
01:40 4.1 90.7 1024.5 12.5 SSE 21.5 S 0.0 37.2 0.1
01:45 4.0 90.8 1024.3 17.0 SSE 30.3 S 0.0 37.3 0.1
01:50 3.8 91.1 1024.2 15.6 SSE 26.8 SSE 0.0 37.5 0.1
01:55 3.7 91.5 1023.9 16.3 S 25.1 SSE 0.0 37.8 0.1
02:00 3.6 91.7 1023.8 16.3 SSE 25.8 SE 0.0 38.0 0.1
02:05 3.5 91.9 1023.7 18.4 SSW 32.1 SW 0.0 38.2 0.1
02:10 3.4 92.1 1023.4 17.3 S 27.9 SSW 0.0 38.4 0.1
02:15 3.3 92.2 1023.3 21.2 SSW 30.3 S 0.0 38.6 0.1
02:20 3.3 92.2 1023.2 20.3 S 30.7 S 0.0 38.7 0.1
02:25 3.2 92.2 1023.6 17.3 S 26.5 SSW 0.0 38.9 0.1
02:30 3.2 92.2 1023.7 14.8 S 26.8 S 0.0 39.3 0.1
02:35 3.3 92.1 1023.8 8.9 S 15.5 S 0.0 39.5 0.1
02:40 3.2 92.0 1023.9 8.2 SSW 14.5 SSW 0.0 39.7 0.1
02:45 3.2 91.9 1024.0 3.9 S 11.3 SSW 0.0 39.9 0.1
02:50 3.3 91.8 1024.2 3.9 E 6.7 E 0.0 40.1 0.1
02:55 3.3 91.6 1024.3 3.7 NNE 6.4 NE 0.0 40.2 0.1
03:00 3.1 91.2 1024.3 4.8 NNW 9.9 NW 0.0 40.2 0.1
03:05 2.6 90.7 1024.2 5.3 N 8.8 NNW 0.0 40.0 0.1
03:10 2.5 91.1 1024.2 4.4 N 6.0 N 0.0 40.1 0.1
03:15 2.6 91.5 1024.1 6.5 NE 8.1 NE 0.0 40.4 0.1
03:20 2.8 91.9 1024.1 4.8 NE 7.4 NE 0.0 40.8 0.1
03:25 3.0 92.0 1024.0 3.2 ENE 4.9 ENE 0.0 41.1 0.1
03:30 3.1 91.9 1023.9 2.7 NE 4.9 NE 0.0 41.4 0.1
03:35 3.1 91.8 1024.0 0.4 NNW 1.8 N 0.0 41.6 0.1
03:40 3.2 91.6 1023.9 1.4 SW 4.2 SW 0.0 41.8 0.1
03:45 3.4 91.0 1023.8 6.9 SW 9.2 SW 0.0 41.9 0.1
Máxima 4.3 92.2 1025.2 21.2 SSW 33.5 SSE 0.0 41.9 0.1
Mínima 2.5 89.2 1023.2 31.8
Total 0.0